createdAt,value
2018-09-21T00:00:03.189Z,63.90
2018-09-21T00:02:31.715Z,63.70
2018-09-21T00:05:00.048Z,63.50
2018-09-21T00:07:28.353Z,63.50
2018-09-21T00:09:56.610Z,63.50
2018-09-21T00:12:24.982Z,63.70
2018-09-21T00:14:53.368Z,63.80
2018-09-21T00:17:21.650Z,63.80
2018-09-21T00:19:49.888Z,63.90
2018-09-21T00:22:18.229Z,63.80
2018-09-21T00:24:46.774Z,63.60
2018-09-21T00:27:15.181Z,63.60
2018-09-21T00:29:43.557Z,63.50
2018-09-21T00:32:11.913Z,63.70
2018-09-21T00:34:40.199Z,63.70
2018-09-21T00:37:09.269Z,64.20
2018-09-21T00:39:37.607Z,63.80
2018-09-21T00:42:05.901Z,63.60
2018-09-21T00:44:34.236Z,63.50
2018-09-21T00:47:02.602Z,63.50
2018-09-21T00:49:31.431Z,63.50
2018-09-21T00:51:59.687Z,63.50
2018-09-21T00:54:27.970Z,63.50
2018-09-21T00:56:56.392Z,63.40
2018-09-21T00:59:24.916Z,63.50
2018-09-21T01:01:53.459Z,64.40
2018-09-21T01:04:32.780Z,63.50
2018-09-21T01:07:01.532Z,63.60
2018-09-21T01:09:29.956Z,63.60
2018-09-21T01:11:58.276Z,63.70
2018-09-21T01:14:26.573Z,63.70
2018-09-21T01:16:54.970Z,64.10
2018-09-21T01:19:24.584Z,64.00
2018-09-21T01:21:53.518Z,64.30
2018-09-21T01:24:22.014Z,64.50
2018-09-21T01:26:50.458Z,64.20
2018-09-21T01:29:18.900Z,64.40
2018-09-21T01:31:47.745Z,64.70
2018-09-21T01:34:16.603Z,64.40
2018-09-21T01:36:44.902Z,64.50
2018-09-21T01:39:13.383Z,64.20
2018-09-21T01:41:41.829Z,64.40
2018-09-21T01:44:10.503Z,64.50
2018-09-21T01:46:39.549Z,64.30
2018-09-21T01:49:08.189Z,64.50
2018-09-21T01:51:36.652Z,64.30
2018-09-21T01:54:05.180Z,64.20
2018-09-21T01:56:33.502Z,64.50
2018-09-21T01:59:02.022Z,64.70
2018-09-21T02:01:30.459Z,64.60
2018-09-21T02:03:58.742Z,64.70
2018-09-21T02:06:26.967Z,65.20
2018-09-21T02:08:55.246Z,64.90
2018-09-21T02:11:23.596Z,65.10
2018-09-21T02:13:52.397Z,64.90
2018-09-21T02:16:20.694Z,66.00
2018-09-21T02:18:49.541Z,65.60
2018-09-21T02:21:18.099Z,65.70
2018-09-21T02:23:48.845Z,66.80
2018-09-21T02:26:17.220Z,65.80
2018-09-21T02:28:45.665Z,65.80
2018-09-21T02:31:13.978Z,65.80
2018-09-21T02:33:42.283Z,66.80
2018-09-21T02:36:10.596Z,66.80
2018-09-21T02:38:38.976Z,66.90
2018-09-21T02:41:07.357Z,67.50
2018-09-21T02:43:35.702Z,67.80
2018-09-21T02:46:03.986Z,67.00
2018-09-21T02:48:32.252Z,67.10
2018-09-21T02:51:00.598Z,67.00
2018-09-21T02:53:28.880Z,67.50
2018-09-21T02:55:57.069Z,68.00
2018-09-21T02:58:25.339Z,67.80
2018-09-21T03:00:53.744Z,67.80
2018-09-21T03:03:21.884Z,67.80
2018-09-21T03:05:50.177Z,68.10
2018-09-21T03:08:18.576Z,68.30
2018-09-21T03:10:46.992Z,68.90
2018-09-21T03:13:15.366Z,68.80
2018-09-21T03:15:43.762Z,68.80
2018-09-21T03:18:12.096Z,69.10
2018-09-21T03:20:40.348Z,69.30
2018-09-21T03:23:08.726Z,69.80
2018-09-21T03:25:37.045Z,70.00
2018-09-21T03:28:05.389Z,69.60
2018-09-21T03:30:33.868Z,70.30
2018-09-21T03:33:02.189Z,70.40
2018-09-21T03:35:31.325Z,70.80
2018-09-21T03:37:59.818Z,70.70
2018-09-21T03:40:28.196Z,70.80
2018-09-21T03:42:56.530Z,70.80
2018-09-21T03:45:24.965Z,71.10
2018-09-21T03:47:53.223Z,71.20
2018-09-21T03:50:21.636Z,71.20
2018-09-21T03:52:50.012Z,71.60
2018-09-21T03:55:18.461Z,71.50
2018-09-21T03:57:47.057Z,72.10
2018-09-21T04:00:15.602Z,71.90
2018-09-21T04:02:44.139Z,72.10
2018-09-21T04:05:12.496Z,72.40
2018-09-21T04:07:40.936Z,72.50
2018-09-21T04:10:09.247Z,72.50
2018-09-21T04:12:37.626Z,72.70
2018-09-21T04:15:06.702Z,73.20
2018-09-21T04:17:35.185Z,73.90
2018-09-21T04:20:03.662Z,73.50
2018-09-21T04:22:32.382Z,73.60
2018-09-21T04:25:00.853Z,74.00
2018-09-21T04:27:29.799Z,74.10
2018-09-21T04:29:58.755Z,74.40
2018-09-21T04:32:30.723Z,74.40
2018-09-21T04:34:59.212Z,74.40
2018-09-21T04:37:27.770Z,74.50
2018-09-21T04:39:56.282Z,74.80
2018-09-21T04:42:25.383Z,74.90
2018-09-21T04:44:53.942Z,75.10
2018-09-21T04:47:22.486Z,75.50
2018-09-21T04:49:50.941Z,75.50
2018-09-21T04:52:26.011Z,75.80
2018-09-21T04:54:54.425Z,77.00
2018-09-21T04:57:22.826Z,76.10
2018-09-21T04:59:51.202Z,76.40
2018-09-21T05:02:19.699Z,76.70
2018-09-21T05:04:48.923Z,76.60
2018-09-21T05:07:17.406Z,77.10
2018-09-21T05:09:45.909Z,77.00
2018-09-21T05:12:14.407Z,77.10
2018-09-21T05:14:42.829Z,77.20
2018-09-21T05:17:11.414Z,77.00
2018-09-21T05:19:39.848Z,77.10
2018-09-21T05:22:08.239Z,77.10
2018-09-21T05:24:36.774Z,77.00
2018-09-21T05:27:05.178Z,77.20
2018-09-21T05:29:33.518Z,77.00
2018-09-21T05:32:01.851Z,77.10
2018-09-21T05:34:30.194Z,77.00
2018-09-21T05:36:58.568Z,76.80
2018-09-21T05:39:27.047Z,76.80
2018-09-21T05:41:55.482Z,76.70
2018-09-21T05:44:24.532Z,76.30
2018-09-21T05:46:52.937Z,76.60
2018-09-21T05:49:21.736Z,76.10
2018-09-21T05:51:50.280Z,76.70
2018-09-21T05:54:18.661Z,76.50
2018-09-21T05:56:47.898Z,75.70
2018-09-21T05:59:16.528Z,75.60
2018-09-21T06:01:44.863Z,75.40
2018-09-21T06:04:13.476Z,75.20
2018-09-21T06:06:41.920Z,75.40
2018-09-21T06:09:12.648Z,75.20
2018-09-21T06:11:41.722Z,74.90
2018-09-21T06:14:11.011Z,74.60
2018-09-21T06:16:39.379Z,74.30
2018-09-21T06:19:08.254Z,73.90
2018-09-21T06:21:36.820Z,73.30
2018-09-21T06:24:05.822Z,73.20
2018-09-21T06:26:34.331Z,73.40
2018-09-21T06:29:02.886Z,72.60
2018-09-21T06:31:31.293Z,72.40
2018-09-21T06:33:59.817Z,71.60
2018-09-21T06:36:28.320Z,71.90
2018-09-21T06:38:57.122Z,71.40
2018-09-21T06:41:25.660Z,71.20
2018-09-21T06:43:54.019Z,71.30
2018-09-21T06:46:22.325Z,71.10
2018-09-21T06:48:50.932Z,71.00
2018-09-21T06:51:19.372Z,70.60
2018-09-21T06:53:47.808Z,70.60
2018-09-21T06:56:16.267Z,70.40
2018-09-21T06:58:44.757Z,70.10
2018-09-21T07:01:13.538Z,69.90
2018-09-21T07:03:42.141Z,69.80
2018-09-21T07:06:10.483Z,69.40
2018-09-21T07:08:39.047Z,69.60
2018-09-21T07:11:07.361Z,69.10
2018-09-21T07:13:35.877Z,69.10
2018-09-21T07:16:04.442Z,68.80
2018-09-21T07:18:34.199Z,68.80
2018-09-21T07:21:02.538Z,68.70
2018-09-21T07:23:30.885Z,68.50
2018-09-21T07:25:59.319Z,68.80
2018-09-21T07:28:34.855Z,68.90
2018-09-21T07:31:03.289Z,68.70
2018-09-21T07:33:31.545Z,69.10
2018-09-21T07:35:59.916Z,68.60
2018-09-21T07:38:28.272Z,68.50
2018-09-21T07:40:56.649Z,68.40
2018-09-21T07:43:25.402Z,68.10
2018-09-21T07:45:53.827Z,67.90
2018-09-21T07:48:22.119Z,69.00
2018-09-21T07:50:50.490Z,68.10
2018-09-21T07:53:18.823Z,67.80
2018-09-21T07:55:47.096Z,68.00
2018-09-21T07:58:15.523Z,67.20
2018-09-21T08:00:43.864Z,67.00
2018-09-21T08:03:12.111Z,66.40
2018-09-21T08:05:40.527Z,66.10
2018-09-21T08:08:09.063Z,66.10
2018-09-21T08:10:37.473Z,65.80
2018-09-21T08:13:05.772Z,65.70
2018-09-21T08:15:34.383Z,65.30
2018-09-21T08:18:02.824Z,65.20
2018-09-21T08:20:31.311Z,64.90
2018-09-21T08:22:59.766Z,64.80
2018-09-21T08:25:28.082Z,64.30
2018-09-21T08:27:56.631Z,64.00
2018-09-21T08:30:26.259Z,64.00
2018-09-21T08:32:54.704Z,63.90
2018-09-21T08:35:23.090Z,63.60
2018-09-21T08:37:51.670Z,63.40
2018-09-21T08:40:20.094Z,63.40
2018-09-21T08:42:48.483Z,63.20
2018-09-21T08:45:16.922Z,63.00
2018-09-21T08:47:45.743Z,63.90
2018-09-21T08:50:14.258Z,63.20
2018-09-21T08:52:43.256Z,62.60
2018-09-21T08:55:12.143Z,62.70
2018-09-21T08:57:40.787Z,62.60
2018-09-21T09:00:10.127Z,61.90
2018-09-21T09:02:39.043Z,62.10
2018-09-21T09:05:07.406Z,61.60
2018-09-21T09:07:35.653Z,61.40
2018-09-21T09:10:04.683Z,61.30
2018-09-21T09:12:33.040Z,61.20
2018-09-21T09:15:01.542Z,60.90
2018-09-21T09:17:30.014Z,60.50
2018-09-21T09:19:58.400Z,60.50
2018-09-21T09:22:26.715Z,60.60
2018-09-21T09:24:55.286Z,60.30
2018-09-21T09:27:23.922Z,60.30
2018-09-21T09:29:52.655Z,60.20
2018-09-21T09:32:20.934Z,60.10
2018-09-21T09:34:49.252Z,61.00
2018-09-21T09:37:17.605Z,60.20
2018-09-21T09:39:46.152Z,59.90
2018-09-21T09:42:14.447Z,59.70
2018-09-21T09:44:43.435Z,59.40
2018-09-21T09:47:18.497Z,59.20
2018-09-21T09:49:46.830Z,59.50
2018-09-21T09:52:15.211Z,59.00
2018-09-21T09:54:44.461Z,59.40
2018-09-21T09:57:12.826Z,58.60
2018-09-21T09:59:41.293Z,58.70
2018-09-21T10:02:09.665Z,58.80
2018-09-21T10:04:38.054Z,58.00
2018-09-21T10:07:07.673Z,57.80
2018-09-21T10:09:37.373Z,58.40
2018-09-21T10:12:05.888Z,57.80
2018-09-21T10:14:34.675Z,58.20
2018-09-21T10:17:03.025Z,57.00
2018-09-21T10:19:31.355Z,57.00
2018-09-21T10:21:59.684Z,56.90
2018-09-21T10:24:28.115Z,56.90
2018-09-21T10:26:56.462Z,57.90
2018-09-21T10:29:24.896Z,57.00
2018-09-21T10:31:53.348Z,56.20
2018-09-21T10:34:22.307Z,56.80
2018-09-21T10:36:50.840Z,55.40
2018-09-21T10:39:19.428Z,55.40
2018-09-21T10:41:47.850Z,55.70
2018-09-21T10:44:16.453Z,55.80
2018-09-21T10:46:45.429Z,54.40
2018-09-21T10:49:13.995Z,54.60
2018-09-21T10:51:42.314Z,55.00
2018-09-21T10:54:10.872Z,55.00
2018-09-21T10:56:39.854Z,54.70
2018-09-21T10:59:08.422Z,55.10
2018-09-21T11:01:37.071Z,54.80
2018-09-21T11:04:05.589Z,54.50
2018-09-21T11:06:34.092Z,54.40
2018-09-21T11:09:02.540Z,54.70
2018-09-21T11:11:31.847Z,54.40
2018-09-21T11:14:00.455Z,54.40
2018-09-21T11:16:29.881Z,54.00
2018-09-21T11:18:58.998Z,54.20
2018-09-21T11:21:27.454Z,54.00
2018-09-21T11:23:55.772Z,53.40
2018-09-21T11:26:24.362Z,53.60
2018-09-21T11:28:53.051Z,53.10
2018-09-21T11:31:22.300Z,53.00
2018-09-21T11:33:51.391Z,53.00
2018-09-21T11:36:19.800Z,52.90
2018-09-21T11:38:48.315Z,52.60
2018-09-21T11:41:16.717Z,52.40
2018-09-21T11:43:45.512Z,52.20
2018-09-21T11:46:13.838Z,52.20
2018-09-21T11:48:42.379Z,51.90
2018-09-21T11:51:10.889Z,52.00
2018-09-21T11:53:39.348Z,52.20
2018-09-21T11:56:07.843Z,52.20
2018-09-21T11:58:36.356Z,51.40
2018-09-21T12:01:04.832Z,50.90
2018-09-21T12:03:33.429Z,50.70
2018-09-21T12:06:05.681Z,50.20
2018-09-21T12:08:38.338Z,50.10
2018-09-21T12:11:06.937Z,50.00
2018-09-21T12:13:36.113Z,50.10
2018-09-21T12:16:04.812Z,50.10
2018-09-21T12:18:33.452Z,50.30
2018-09-21T12:21:02.200Z,50.50
2018-09-21T12:23:31.083Z,50.40
2018-09-21T12:25:59.671Z,50.60
2018-09-21T12:28:28.384Z,50.30
2018-09-21T12:30:56.823Z,50.20
2018-09-21T12:33:25.451Z,50.10
2018-09-21T12:35:53.859Z,50.10
2018-09-21T12:38:22.343Z,49.90
2018-09-21T12:40:50.735Z,49.90
2018-09-21T12:43:19.145Z,49.90
2018-09-21T12:45:48.541Z,49.80
2018-09-21T12:48:18.164Z,50.00
2018-09-21T12:50:46.719Z,49.90
2018-09-21T12:53:15.785Z,50.00
2018-09-21T12:55:44.249Z,50.10
2018-09-21T12:58:12.703Z,50.20
2018-09-21T13:00:46.683Z,50.30
2018-09-21T13:03:15.173Z,50.00
2018-09-21T13:05:43.730Z,50.00
2018-09-21T13:08:12.434Z,49.80
2018-09-21T13:10:41.221Z,49.70
2018-09-21T13:13:09.589Z,49.70
2018-09-21T13:15:38.195Z,49.90
2018-09-21T13:18:06.941Z,50.00
2018-09-21T13:20:36.843Z,50.00
2018-09-21T13:23:05.626Z,50.00
2018-09-21T13:25:34.296Z,49.90
2018-09-21T13:28:02.951Z,50.40
2018-09-21T13:30:32.521Z,49.90
2018-09-21T13:33:01.431Z,49.80
2018-09-21T13:35:30.833Z,49.30
2018-09-21T13:37:59.802Z,49.30
2018-09-21T13:40:43.659Z,49.20
2018-09-21T13:43:12.363Z,49.20
2018-09-21T13:45:41.085Z,49.20
2018-09-21T13:48:09.865Z,49.60
2018-09-21T13:50:38.987Z,49.80
2018-09-21T13:53:07.727Z,50.00
2018-09-21T13:55:36.161Z,50.10
2018-09-21T13:58:04.635Z,50.30
2018-09-21T14:00:33.084Z,50.40
2018-09-21T14:03:01.764Z,50.50
2018-09-21T14:05:30.290Z,50.60
2018-09-21T14:07:58.791Z,50.70
2018-09-21T14:10:27.297Z,51.10
2018-09-21T14:12:55.831Z,51.20
2018-09-21T14:15:24.469Z,51.50
2018-09-21T14:17:53.062Z,51.70
2018-09-21T14:20:21.650Z,51.70
2018-09-21T14:22:50.853Z,51.60
2018-09-21T14:25:19.372Z,51.60
2018-09-21T14:27:47.961Z,51.50
2018-09-21T14:30:17.282Z,51.40
2018-09-21T14:32:45.775Z,51.40
2018-09-21T14:35:14.908Z,51.50
2018-09-21T14:37:47.176Z,51.60
2018-09-21T14:40:15.843Z,53.50
2018-09-21T14:42:45.560Z,58.50
2018-09-21T14:45:14.845Z,65.00
2018-09-21T14:47:43.527Z,66.80
2018-09-21T14:50:12.695Z,65.50
2018-09-21T14:52:41.436Z,65.90
2018-09-21T14:55:10.532Z,64.50
2018-09-21T14:57:39.410Z,63.90
2018-09-21T15:00:08.292Z,64.10
2018-09-21T15:02:43.242Z,64.80
2018-09-21T15:05:13.592Z,65.30
2018-09-21T15:07:43.915Z,66.20
2018-09-21T15:10:13.092Z,66.50
2018-09-21T15:12:41.965Z,68.10
2018-09-21T15:15:10.685Z,69.90
2018-09-21T15:17:39.970Z,70.90
2018-09-21T15:20:14.980Z,71.60
2018-09-21T15:22:43.322Z,74.70
2018-09-21T15:28:02.011Z,81.50
2018-09-21T15:30:30.855Z,82.40
2018-09-21T15:32:59.644Z,83.80
2018-09-21T15:35:28.506Z,84.40
2018-09-21T15:37:57.057Z,84.50
2018-09-21T15:40:25.871Z,85.30
2018-09-21T15:42:56.328Z,84.60
2018-09-21T15:45:26.132Z,86.00
2018-09-21T15:47:55.015Z,85.50
2018-09-21T15:50:23.809Z,85.40
2018-09-21T15:52:52.609Z,85.10
2018-09-21T15:55:21.305Z,86.90
2018-09-21T15:57:49.944Z,84.80
2018-09-21T16:00:18.317Z,87.40
2018-09-21T16:02:46.971Z,86.90
2018-09-21T16:05:15.543Z,87.10
2018-09-21T16:07:44.611Z,88.80
2018-09-21T16:10:21.743Z,87.90
2018-09-21T16:12:50.592Z,87.70
2018-09-21T16:15:19.191Z,90.00
2018-09-21T16:17:48.243Z,88.80
2018-09-21T16:20:17.923Z,89.10
2018-09-21T16:22:46.635Z,90.80
2018-09-21T16:25:15.227Z,90.60
2018-09-21T16:27:43.837Z,90.80
2018-09-21T16:30:12.310Z,90.90
2018-09-21T16:32:40.815Z,91.40
2018-09-21T16:35:09.290Z,91.80
2018-09-21T16:37:37.856Z,91.30
2018-09-21T16:40:07.066Z,91.50
2018-09-21T16:42:35.531Z,91.50
2018-09-21T16:45:05.146Z,91.60
2018-09-21T16:47:35.021Z,91.80
2018-09-21T16:50:03.838Z,91.40
2018-09-21T16:52:32.504Z,91.50
2018-09-21T16:55:01.324Z,92.10
2018-09-21T16:57:29.922Z,92.40
2018-09-21T16:59:58.499Z,93.30
2018-09-21T17:02:27.246Z,93.40
2018-09-21T17:04:55.829Z,93.30
2018-09-21T17:07:24.466Z,94.20
2018-09-21T17:09:53.336Z,94.40
2018-09-21T17:12:21.769Z,94.70
2018-09-21T17:14:50.488Z,94.50
2018-09-21T17:17:19.182Z,94.70
2018-09-21T17:19:48.409Z,95.10
2018-09-21T17:22:16.996Z,95.40
2018-09-21T17:24:45.619Z,95.40
2018-09-21T17:27:14.146Z,95.30
2018-09-21T17:29:43.050Z,95.80
2018-09-21T17:32:12.451Z,95.70
2018-09-21T17:34:46.748Z,95.40
2018-09-21T17:37:15.324Z,95.10
2018-09-21T17:39:58.286Z,95.00
2018-09-21T17:42:28.137Z,94.90
2018-09-21T17:44:56.782Z,94.70
2018-09-21T17:47:25.231Z,94.90
2018-09-21T17:50:31.460Z,94.50
2018-09-21T17:53:05.934Z,94.50
2018-09-21T17:55:35.146Z,94.50
2018-09-21T17:58:03.703Z,94.50
2018-09-21T18:00:32.109Z,94.40
2018-09-21T18:03:00.604Z,94.20
2018-09-21T18:05:29.413Z,94.30
2018-09-21T18:07:58.152Z,94.00
2018-09-21T18:10:29.010Z,93.90
2018-09-21T18:12:58.279Z,93.70
2018-09-21T18:15:27.272Z,94.00
2018-09-21T18:17:55.989Z,94.00
2018-09-21T18:20:24.856Z,93.60
2018-09-21T18:22:53.659Z,93.50
2018-09-21T18:25:22.521Z,93.90
2018-09-21T18:27:51.223Z,94.10
2018-09-21T18:30:19.939Z,94.30
2018-09-21T18:32:48.766Z,94.40
2018-09-21T18:35:17.507Z,94.50
2018-09-21T18:37:45.930Z,94.50
2018-09-21T18:40:14.714Z,94.00
2018-09-21T18:42:43.307Z,94.20
2018-09-21T18:45:11.813Z,94.60
2018-09-21T18:47:40.424Z,95.10
2018-09-21T18:50:09.202Z,95.10
2018-09-21T18:52:38.788Z,95.00
2018-09-21T18:55:07.197Z,94.90
2018-09-21T18:57:35.598Z,95.00
2018-09-21T19:00:03.976Z,94.90
2018-09-21T19:02:32.357Z,95.10
2018-09-21T19:05:00.997Z,95.20
2018-09-21T19:07:31.473Z,94.90
2018-09-21T19:10:00.510Z,94.90
2018-09-21T19:12:29.459Z,94.90
2018-09-21T19:14:57.993Z,94.90
2018-09-21T19:17:26.505Z,95.00
2018-09-21T19:19:55.064Z,95.00
2018-09-21T19:22:23.885Z,95.00
2018-09-21T19:24:52.500Z,94.70
2018-09-21T19:27:21.167Z,94.40
2018-09-21T19:29:49.669Z,94.60
2018-09-21T19:32:18.164Z,94.70
2018-09-21T19:34:46.820Z,94.60
2018-09-21T19:37:15.400Z,94.40
2018-09-21T19:39:44.093Z,94.10
2018-09-21T19:42:13.091Z,94.30
2018-09-21T19:44:44.572Z,94.40
2018-09-21T19:47:13.472Z,94.80
2018-09-21T19:49:42.942Z,94.60
2018-09-21T19:52:11.838Z,94.70
2018-09-21T19:54:42.054Z,94.70
2018-09-21T19:57:11.198Z,94.80
2018-09-21T19:59:40.772Z,94.90
2018-09-21T20:02:09.795Z,94.90
2018-09-21T20:04:38.653Z,94.80
2018-09-21T20:07:08.708Z,94.50
2018-09-21T20:09:38.110Z,94.40
2018-09-21T20:12:07.182Z,94.10
2018-09-21T20:14:35.848Z,93.80
2018-09-21T20:17:11.152Z,94.00
2018-09-21T20:19:46.934Z,94.20
2018-09-21T20:22:17.029Z,94.20
2018-09-21T20:24:46.066Z,94.40
2018-09-21T20:27:14.741Z,94.60
2018-09-21T20:29:43.317Z,94.60
2018-09-21T20:32:17.899Z,94.30
2018-09-21T20:34:46.423Z,93.90
2018-09-21T20:37:16.165Z,94.10
2018-09-21T20:39:44.571Z,93.80
2018-09-21T20:42:14.209Z,93.80
2018-09-21T20:44:42.883Z,93.50
2018-09-21T20:47:11.484Z,92.90
2018-09-21T20:49:40.208Z,93.10
2018-09-21T20:52:08.744Z,92.40
2018-09-21T20:54:37.583Z,92.40
2018-09-21T20:57:05.758Z,92.20
2018-09-21T20:59:34.075Z,92.10
2018-09-21T21:02:02.874Z,91.70
2018-09-21T21:04:32.249Z,91.50
2018-09-21T21:07:00.726Z,91.50
2018-09-21T21:09:29.170Z,91.10
2018-09-21T21:11:57.811Z,90.60
2018-09-21T21:14:26.620Z,90.50
2018-09-21T21:16:55.712Z,90.30
2018-09-21T21:19:27.140Z,89.30
2018-09-21T21:21:56.477Z,88.90
2018-09-21T21:24:25.051Z,88.90
2018-09-21T21:26:53.561Z,87.70
2018-09-21T21:29:22.033Z,86.80
2018-09-21T21:31:50.707Z,86.70
2018-09-21T21:34:19.136Z,86.50
2018-09-21T21:36:47.787Z,85.30
2018-09-21T21:39:16.374Z,85.10
2018-09-21T21:41:44.885Z,84.10
2018-09-21T21:44:13.438Z,82.80
2018-09-21T21:46:41.983Z,82.70
2018-09-21T21:49:10.703Z,81.90
2018-09-21T21:51:39.161Z,81.80
2018-09-21T21:54:07.417Z,80.90
2018-09-21T21:56:35.777Z,79.20
2018-09-21T21:59:04.284Z,77.90
2018-09-21T22:01:37.992Z,76.90
2018-09-21T22:04:06.735Z,76.00
2018-09-21T22:06:40.454Z,76.50
2018-09-21T22:09:10.456Z,75.40
2018-09-21T22:11:44.111Z,74.80
2018-09-21T22:14:13.183Z,74.60
2018-09-21T22:16:41.918Z,74.10
2018-09-21T22:19:11.230Z,73.80
2018-09-21T22:21:39.764Z,73.60
2018-09-21T22:24:08.436Z,73.50
2018-09-21T22:26:36.769Z,73.10
2018-09-21T22:29:05.152Z,72.70
2018-09-21T22:31:33.500Z,71.90
2018-09-21T22:34:01.832Z,70.90
2018-09-21T22:36:30.208Z,70.10
2018-09-21T22:38:58.889Z,69.50
2018-09-21T22:44:11.702Z,69.40
2018-09-21T22:46:40.257Z,68.60
2018-09-21T22:49:16.458Z,68.20
2018-09-21T22:51:44.829Z,68.40
2018-09-21T22:54:13.660Z,68.60
2018-09-21T22:56:42.279Z,68.90
2018-09-21T22:59:11.426Z,69.00
2018-09-21T23:01:40.152Z,69.50
2018-09-21T23:04:08.658Z,69.10
2018-09-21T23:06:37.259Z,69.00
2018-09-21T23:09:08.359Z,68.90
2018-09-21T23:11:36.856Z,68.30
2018-09-21T23:14:05.356Z,68.20
2018-09-21T23:16:34.026Z,67.30
2018-09-21T23:19:03.326Z,67.40
2018-09-21T23:21:31.609Z,66.60
2018-09-21T23:24:00.181Z,65.40
2018-09-21T23:26:28.835Z,65.10
2018-09-21T23:28:57.231Z,64.90
2018-09-21T23:31:25.831Z,64.50
2018-09-21T23:33:54.711Z,63.80
2018-09-21T23:36:23.104Z,63.90
2018-09-21T23:38:51.944Z,64.10
2018-09-21T23:41:20.195Z,63.90
2018-09-21T23:43:48.753Z,64.00
2018-09-21T23:46:17.179Z,64.40
2018-09-21T23:48:45.528Z,64.30
2018-09-21T23:51:14.070Z,64.60
2018-09-21T23:53:42.539Z,64.20
2018-09-21T23:56:10.948Z,64.40
2018-09-21T23:58:39.442Z,64.10
